Time;durP1;ratioP1;P1;durP2;ratioP2;P2;SDS_P1;SDS_P2;PMS_P1;PMS_P2;Temp;Humidity;BMP_temperature;BMP_pressure;BME280_temperature;BME280_humidity;BME280_pressure;Samples;Min_cycle;Max_cycle;Signal;HPM_P1;HPM_P2
2022/09/14 00:01:38;;;;;;;8.20;2.00;;;;;;;16.61;90.73;100766.00;5072080;28;20052;-52
2022/09/14 00:04:13;;;;;;;7.43;1.45;;;;;;;16.63;91.23;100765.84;5072691;28;20037;-49
2022/09/14 00:06:42;;;;;;;8.63;1.70;;;;;;;16.62;91.34;100766.81;5071765;28;20137;-50
2022/09/14 00:09:15;;;;;;;4.55;1.73;;;;;;;16.68;91.55;100774.22;5072156;28;20155;-52
2022/09/14 00:11:45;;;;;;;9.10;1.92;;;;;;;16.63;91.34;100761.34;5072793;28;20052;-51
2022/09/14 00:14:13;;;;;;;7.78;1.50;;;;;;;16.65;91.74;100763.91;5072425;28;20045;-52
2022/09/14 00:16:44;;;;;;;5.50;1.60;;;;;;;16.62;92.18;100751.75;5071947;28;20044;-51
2022/09/14 00:19:17;;;;;;;6.55;1.50;;;;;;;16.70;92.26;100743.91;5071886;28;20044;-50
2022/09/14 00:21:51;;;;;;;6.45;1.55;;;;;;;16.63;92.82;100748.09;5071076;28;20041;-50
2022/09/14 00:24:19;;;;;;;4.45;1.42;;;;;;;16.64;92.53;100747.13;5070379;28;20139;-47
2022/09/14 00:26:48;;;;;;;6.65;1.58;;;;;;;16.66;92.30;100749.63;5072257;28;20050;-50
2022/09/14 00:29:17;;;;;;;9.75;1.65;;;;;;;16.76;91.64;100749.63;5073432;28;20087;-50
2022/09/14 00:31:45;;;;;;;8.73;1.52;;;;;;;16.64;92.24;100739.16;5071648;28;20561;-52
2022/09/14 00:34:15;;;;;;;8.70;1.67;;;;;;;16.63;91.94;100734.81;5071522;28;20044;-48
2022/09/14 00:36:46;;;;;;;6.70;1.50;;;;;;;16.48;93.43;100734.41;5071343;28;20533;-52
2022/09/14 00:39:15;;;;;;;6.95;1.50;;;;;;;16.38;94.94;100729.13;5071302;28;20123;-53
2022/09/14 00:41:45;;;;;;;6.20;1.45;;;;;;;16.38;95.17;100729.13;5071838;28;20083;-50
2022/09/14 00:44:51;;;;;;;9.23;1.85;;;;;;;16.32;95.14;100723.53;5071708;28;20048;-50
2022/09/14 00:47:20;;;;;;;4.85;1.48;;;;;;;16.22;95.30;100723.53;5070169;28;20052;-52
2022/09/14 00:49:51;;;;;;;6.53;1.40;;;;;;;16.21;96.07;100716.53;5070764;28;20083;-52
2022/09/14 00:52:23;;;;;;;6.63;1.60;;;;;;;16.30;95.17;100712.22;5070980;28;20041;-52
2022/09/14 00:54:53;;;;;;;9.10;1.55;;;;;;;16.32;94.72;100713.78;5071235;28;20568;-53
2022/09/14 00:57:22;;;;;;;8.43;1.70;;;;;;;16.25;95.04;100703.84;5070984;28;20254;-52
2022/09/14 00:59:52;;;;;;;6.15;1.33;;;;;;;16.13;94.59;100701.34;5071217;28;20645;-49
2022/09/14 01:02:23;;;;;;;8.40;1.60;;;;;;;16.10;94.70;100693.69;5071375;28;20047;-53
2022/09/14 01:04:52;;;;;;;6.07;1.25;;;;;;;16.05;94.92;100686.13;5070009;28;20055;-51
2022/09/14 01:07:31;;;;;;;5.00;1.35;;;;;;;15.99;95.08;100692.00;5070853;28;20044;-51
2022/09/14 01:10:08;;;;;;;9.35;1.75;;;;;;;16.04;95.10;100689.75;5071172;28;20045;-52
2022/09/14 01:12:49;;;;;;;7.07;1.48;;;;;;;16.29;93.94;100692.84;5071358;28;20443;-55
2022/09/14 01:15:25;;;;;;;7.55;1.52;;;;;;;16.10;94.06;100688.38;5070781;28;20422;-53
2022/09/14 01:18:03;;;;;;;7.97;1.48;;;;;;;16.13;94.03;100681.91;5070705;28;20106;-52
2022/09/14 01:20:35;;;;;;;7.50;1.45;;;;;;;16.22;93.75;100681.09;5068291;28;20110;-51
2022/09/14 01:23:13;;;;;;;11.30;1.80;;;;;;;16.12;93.88;100685.56;5070691;28;20110;-52
2022/09/14 01:26:18;;;;;;;5.25;1.58;;;;;;;16.14;94.18;100683.59;5070758;28;20052;-51
2022/09/14 01:28:54;;;;;;;4.95;1.33;;;;;;;16.17;94.28;100683.31;5071086;28;20382;-55
2022/09/14 01:31:30;;;;;;;7.30;1.50;;;;;;;16.31;93.19;100677.59;5069951;28;20051;-52
2022/09/14 01:34:07;;;;;;;7.95;1.40;;;;;;;16.22;93.69;100681.09;5071238;28;20056;-50
2022/09/14 01:36:39;;;;;;;4.18;1.30;;;;;;;16.25;94.83;100675.50;5069903;28;20062;-52
2022/09/14 01:39:08;;;;;;;5.47;1.65;;;;;;;16.26;94.32;100671.03;5070458;28;20037;-49
2022/09/14 01:41:38;;;;;;;7.97;1.73;;;;;;;16.04;95.01;100673.00;5070813;28;20056;-51
2022/09/14 01:44:12;;;;;;;8.40;1.20;;;;;;;16.11;95.14;100668.81;5069809;28;20079;-53
2022/09/14 01:46:44;;;;;;;7.30;1.40;;;;;;;16.06;94.93;100668.41;5070500;28;20045;-53
2022/09/14 01:49:17;;;;;;;6.40;1.70;;;;;;;16.20;94.14;100673.28;5070475;28;20044;-53
2022/09/14 01:51:49;;;;;;;6.00;1.77;;;;;;;16.27;93.41;100665.59;5069746;28;20072;-53
2022/09/14 01:54:22;;;;;;;10.63;1.67;;;;;;;16.21;94.12;100667.00;5068934;28;20076;-51
2022/09/14 01:56:55;;;;;;;6.03;1.52;;;;;;;16.08;94.51;100674.41;5070813;28;20074;-52
2022/09/14 01:59:28;;;;;;;7.47;1.38;;;;;;;16.15;94.42;100678.16;5070551;28;20064;-52
2022/09/14 02:01:57;;;;;;;;;;;;;;;16.15;95.08;100674.69;5070883;28;20048;-54
2022/09/14 02:04:31;;;;;;;8.25;1.20;;;;;;;16.11;94.48;100667.97;5070478;28;19921;-48
2022/09/14 02:06:59;;;;;;;6.70;1.77;;;;;;;16.12;94.13;100661.69;5069721;28;20044;-53
2022/09/14 02:09:27;;;;;;;6.90;1.52;;;;;;;16.12;93.98;100661.69;5069943;28;20067;-52
2022/09/14 02:11:59;;;;;;;7.13;1.50;;;;;;;16.04;94.40;100657.09;5070176;28;20044;-52
2022/09/14 02:14:30;;;;;;;4.43;1.13;;;;;;;16.10;94.53;100653.03;5070259;28;20074;-52
2022/09/14 02:16:58;;;;;;;7.32;1.42;;;;;;;16.08;94.58;100652.34;5070158;28;20044;-51
2022/09/14 02:19:33;;;;;;;7.20;1.42;;;;;;;16.10;94.43;100650.38;5068589;28;20583;-53
2022/09/14 02:22:01;;;;;;;6.57;1.45;;;;;;;16.12;94.53;100651.09;5069454;28;20380;-49
2022/09/14 02:24:29;;;;;;;6.55;1.55;;;;;;;16.09;94.44;100651.34;5069520;28;20075;-50
2022/09/14 02:26:59;;;;;;;6.85;1.15;;;;;;;16.06;94.41;100649.84;5070412;28;20079;-50
2022/09/14 02:29:28;;;;;;;6.32;1.20;;;;;;;16.04;93.75;100646.47;5069665;28;20047;-49
2022/09/14 02:32:15;;;;;;;5.72;1.38;;;;;;;15.99;94.57;100640.75;5070145;28;20049;-49
2022/09/14 02:34:54;;;;;;;6.70;1.15;;;;;;;16.01;95.11;100647.59;5069351;28;20074;-50
2022/09/14 02:37:31;;;;;;;8.75;1.73;;;;;;;15.89;95.20;100641.56;5070049;28;20143;-52
2022/09/14 02:40:08;;;;;;;6.50;1.60;;;;;;;15.95;95.70;100639.34;5070195;28;20044;-48
2022/09/14 02:42:45;;;;;;;6.13;1.25;;;;;;;15.90;96.07;100637.13;5069068;28;20055;-48
2022/09/14 02:45:21;;;;;;;7.57;1.45;;;;;;;15.76;96.48;100638.38;5069586;28;20527;-50
2022/09/14 02:47:56;;;;;;;7.93;1.52;;;;;;;15.76;95.67;100635.72;5070199;28;20052;-52
2022/09/14 02:50:34;;;;;;;7.65;1.58;;;;;;;15.86;95.83;100641.03;5068547;28;20068;-52
2022/09/14 02:53:08;;;;;;;7.30;1.40;;;;;;;15.84;95.95;100641.19;5069905;28;20056;-51
2022/09/14 02:55:41;;;;;;;6.38;1.50;;;;;;;15.83;97.12;100638.69;5069637;28;20048;-46
2022/09/14 02:58:11;;;;;;;6.10;1.40;;;;;;;15.86;98.79;100636.56;5085277;28;20417;-51
2022/09/14 03:00:44;;;;;;;6.97;1.10;;;;;;;15.90;100.00;100634.47;5069443;28;20181;-48
2022/09/14 03:03:15;;;;;;;5.97;1.15;;;;;;;15.76;100.00;100632.19;5069421;28;20044;-52
2022/09/14 03:05:43;;;;;;;4.28;1.20;;;;;;;15.81;100.00;100630.00;5068960;28;20567;-52
2022/09/14 03:08:11;;;;;;;10.38;1.90;;;;;;;15.81;100.00;100636.13;5069526;28;20044;-50
2022/09/14 03:10:42;;;;;;;6.05;1.63;;;;;;;15.66;100.00;100638.31;5069855;28;20098;-51
2022/09/14 03:13:11;;;;;;;6.10;1.33;;;;;;;15.60;100.00;100638.03;5069837;28;20049;-53
2022/09/14 03:15:40;;;;;;;9.60;1.67;;;;;;;15.64;100.00;100632.34;5069700;28;20379;-52
2022/09/14 03:18:09;;;;;;;5.22;1.08;;;;;;;15.79;100.00;100623.97;5069202;28;20045;-52
2022/09/14 03:20:41;;;;;;;6.68;1.27;;;;;;;15.78;100.00;100617.84;5068871;28;20436;-49
2022/09/14 03:23:10;;;;;;;5.10;1.48;;;;;;;15.69;100.00;100608.91;5069297;28;20174;-49
2022/09/14 03:25:41;;;;;;;5.00;1.73;;;;;;;15.66;100.00;100611.81;5069466;28;20119;-50
2022/09/14 03:28:10;;;;;;;6.35;1.35;;;;;;;15.51;100.00;100602.59;5069484;28;20052;-52
2022/09/14 03:30:39;;;;;;;6.28;1.58;;;;;;;15.44;100.00;100594.38;5068753;28;20056;-50
2022/09/14 03:33:08;;;;;;;5.90;1.50;;;;;;;15.40;100.00;100590.31;5072806;28;20052;-49
2022/09/14 03:35:36;;;;;;;8.63;1.45;;;;;;;15.43;100.00;100586.56;5071939;28;20402;-50
2022/09/14 03:38:04;;;;;;;6.50;1.20;;;;;;;15.45;100.00;100590.75;5073106;28;20052;-48
2022/09/14 03:40:32;;;;;;;9.15;1.55;;;;;;;15.32;100.00;100587.53;5072647;28;20502;-54
2022/09/14 03:43:00;;;;;;;6.43;1.30;;;;;;;15.30;100.00;100584.19;5073147;28;20055;-50
2022/09/14 03:45:28;;;;;;;7.65;1.48;;;;;;;15.43;100.00;100583.91;5072415;28;20175;-47
2022/09/14 03:47:59;;;;;;;6.00;1.35;;;;;;;15.36;100.00;100589.75;5072910;28;20044;-48
2022/09/14 03:50:29;;;;;;;6.63;1.80;;;;;;;15.40;100.00;100585.03;5071734;28;20964;-51
2022/09/14 03:52:56;;;;;;;7.05;1.50;;;;;;;15.43;100.00;100587.38;5072849;28;20044;-48
2022/09/14 03:55:27;;;;;;;4.80;1.30;;;;;;;15.38;100.00;100590.47;5071177;28;20910;-49
2022/09/14 03:57:58;;;;;;;8.30;1.50;;;;;;;15.42;100.00;100587.53;5072725;28;20048;-52
2022/09/14 04:00:29;;;;;;;3.85;1.50;;;;;;;15.55;100.00;100590.75;5072490;28;20052;-48
2022/09/14 04:02:59;;;;;;;7.55;1.60;;;;;;;15.62;100.00;100586.56;5072462;28;20102;-50
2022/09/14 04:05:29;;;;;;;7.10;1.73;;;;;;;15.57;100.00;100587.97;5071545;28;20092;-48
2022/09/14 04:07:57;;;;;;;11.30;1.80;;;;;;;15.58;100.00;100576.41;5072519;28;20127;-49
2022/09/14 04:10:25;;;;;;;6.75;1.50;;;;;;;15.60;100.00;100582.38;5072072;28;20123;-50
2022/09/14 04:12:53;;;;;;;8.75;2.10;;;;;;;15.58;100.00;100571.91;5072446;28;20037;-49
2022/09/14 04:15:21;;;;;;;8.80;2.00;;;;;;;15.57;100.00;100580.00;5071801;28;20428;-52
2022/09/14 04:17:50;;;;;;;8.73;2.50;;;;;;;15.51;100.00;100576.94;5072204;28;20052;-49
2022/09/14 04:20:18;;;;;;;8.02;2.05;;;;;;;15.49;100.00;100578.91;5071518;28;20131;-51
2022/09/14 04:22:47;;;;;;;10.95;2.20;;;;;;;15.44;100.00;100570.53;5072510;28;20106;-50
2022/09/14 04:25:15;;;;;;;8.35;2.22;;;;;;;15.50;100.00;100575.28;5071970;28;20052;-52
2022/09/14 04:27:43;;;;;;;7.63;2.25;;;;;;;15.43;100.00;100568.84;5072341;28;20608;-49
2022/09/14 04:30:31;;;;;;;8.60;2.22;;;;;;;15.42;100.00;100561.88;5070875;28;20411;-50
2022/09/14 04:32:59;;;;;;;9.90;2.63;;;;;;;15.49;100.00;100556.88;5070781;28;20045;-48
2022/09/14 04:35:27;;;;;;;12.45;3.65;;;;;;;15.47;100.00;100557.00;5070816;28;20052;-51
2022/09/14 04:37:56;;;;;;;11.60;3.40;;;;;;;15.52;100.00;100556.59;5072093;28;20076;-50
2022/09/14 04:40:24;;;;;;;10.88;3.20;;;;;;;15.37;100.00;100540.25;5072048;28;20072;-50
2022/09/14 04:42:52;;;;;;;11.38;3.08;;;;;;;15.40;100.00;100541.81;5071236;28;20045;-53
2022/09/14 04:45:20;;;;;;;11.73;3.20;;;;;;;15.35;100.00;100545.72;5070566;28;20067;-50
2022/09/14 04:47:49;;;;;;;10.15;3.38;;;;;;;15.37;100.00;100543.75;5071712;28;20072;-51
2022/09/14 04:50:17;;;;;;;10.00;3.33;;;;;;;15.31;100.00;100544.31;5070507;28;20047;-50
2022/09/14 04:52:45;;;;;;;12.52;3.78;;;;;;;15.26;100.00;100538.59;5071693;28;20048;-51
2022/09/14 04:55:14;;;;;;;10.05;3.50;;;;;;;15.29;100.00;100533.00;5070678;28;20041;-51
2022/09/14 04:57:42;;;;;;;9.80;3.20;;;;;;;15.27;100.00;100526.16;5071803;28;20051;-48
2022/09/14 05:00:11;;;;;;;8.70;3.28;;;;;;;15.22;100.00;100518.63;5071020;28;20045;-50
2022/09/14 05:02:40;;;;;;;10.18;3.42;;;;;;;15.14;100.00;100523.78;5071255;28;20080;-48
2022/09/14 05:05:09;;;;;;;12.50;3.70;;;;;;;15.28;100.00;100527.84;5069975;28;20550;-49
2022/09/14 05:07:37;;;;;;;9.13;3.55;;;;;;;15.32;100.00;100535.38;5071938;28;20501;-49
2022/09/14 05:10:06;;;;;;;12.02;3.55;;;;;;;15.17;100.00;100534.97;5071300;28;20554;-52
2022/09/14 05:12:35;;;;;;;10.38;3.58;;;;;;;15.11;100.00;100540.78;5071559;28;20135;-48
2022/09/14 05:15:04;;;;;;;8.00;3.38;;;;;;;15.08;100.00;100540.22;5070111;28;20506;-49
2022/09/14 05:17:34;;;;;;;6.75;3.30;;;;;;;15.14;100.00;100537.03;5070341;28;20079;-47
2022/09/14 05:20:02;;;;;;;7.90;3.33;;;;;;;15.19;100.00;100535.66;5070242;28;20048;-48
2022/09/14 05:22:30;;;;;;;11.75;3.55;;;;;;;15.14;100.00;100535.22;5070679;28;20080;-47
2022/09/14 05:24:58;;;;;;;10.27;3.38;;;;;;;15.18;100.00;100538.44;5070547;28;20044;-46
2022/09/14 05:27:26;;;;;;;10.40;4.20;;;;;;;15.12;100.00;100538.97;5070775;28;20047;-48
2022/09/14 05:29:56;;;;;;;10.63;3.47;;;;;;;15.16;100.00;100545.66;5070465;28;20557;-47
2022/09/14 05:32:24;;;;;;;9.43;3.58;;;;;;;15.19;100.00;100543.59;5070489;28;20078;-48
2022/09/14 05:34:52;;;;;;;11.35;3.70;;;;;;;15.16;100.00;100548.31;5068724;28;20045;-52
2022/09/14 05:37:20;;;;;;;9.98;3.28;;;;;;;15.29;100.00;100550.72;5070587;28;20048;-48
2022/09/14 05:39:50;;;;;;;7.80;3.50;;;;;;;15.18;100.00;100557.81;5070394;28;20040;-50
2022/09/14 05:42:18;;;;;;;8.90;3.80;;;;;;;15.22;100.00;100563.66;5070232;28;20105;-49
2022/09/14 05:44:46;;;;;;;6.53;3.30;;;;;;;15.22;100.00;100555.72;5070140;28;20086;-49
2022/09/14 05:47:15;;;;;;;11.98;4.00;;;;;;;15.15;100.00;100567.84;5070118;28;20047;-51
2022/09/14 05:49:43;;;;;;;9.63;4.47;;;;;;;15.16;100.00;100558.91;5069584;28;20536;-49
2022/09/14 05:52:11;;;;;;;12.07;4.15;;;;;;;15.26;100.00;100554.47;5070088;28;20055;-51
2022/09/14 05:54:39;;;;;;;9.50;3.78;;;;;;;15.20;100.00;100552.38;5068515;28;20076;-51
2022/09/14 05:57:10;;;;;;;10.52;3.13;;;;;;;15.11;100.00;100539.97;5070397;28;20487;-53
2022/09/14 05:59:38;;;;;;;8.48;3.33;;;;;;;15.02;100.00;100534.50;5070198;28;20399;-50
2022/09/14 06:02:06;;;;;;;12.23;3.58;;;;;;;14.97;100.00;100528.78;5070529;28;20467;-51
2022/09/14 06:04:38;;;;;;;12.50;3.70;;;;;;;14.99;100.00;100541.88;5070131;28;20110;-50
2022/09/14 06:07:06;;;;;;;11.20;4.10;;;;;;;14.98;100.00;100541.06;5069772;28;20434;-48
2022/09/14 06:09:48;;;;;;;7.95;3.15;;;;;;;15.00;100.00;100543.56;5070357;28;20798;-47
2022/09/14 06:12:16;;;;;;;8.60;3.10;;;;;;;15.00;100.00;100551.50;5070073;28;20091;-48
2022/09/14 06:14:44;;;;;;;13.52;4.43;;;;;;;15.01;100.00;100563.75;5069850;28;20055;-46
2022/09/14 06:17:12;;;;;;;9.90;3.90;;;;;;;15.05;100.00;100559.84;5070413;28;20391;-48
2022/09/14 06:19:41;;;;;;;8.75;3.22;;;;;;;15.17;100.00;100574.69;5069775;28;20051;-49
2022/09/14 06:22:09;;;;;;;10.32;3.60;;;;;;;15.16;100.00;100577.44;5070034;28;20063;-49
2022/09/14 06:24:37;;;;;;;10.88;3.35;;;;;;;15.17;100.00;100571.19;5070290;28;20437;-48
2022/09/14 06:27:09;;;;;;;7.38;3.42;;;;;;;15.18;100.00;100573.69;5070174;28;20052;-50
2022/09/14 06:29:37;;;;;;;9.63;3.42;;;;;;;15.18;100.00;100556.97;5069771;28;20470;-51
2022/09/14 06:32:05;;;;;;;10.40;3.20;;;;;;;15.26;100.00;100557.13;5070265;28;20215;-52
2022/09/14 06:34:33;;;;;;;10.68;3.63;;;;;;;15.14;100.00;100550.28;5070294;28;20067;-50
2022/09/14 06:37:02;;;;;;;11.63;3.75;;;;;;;15.17;100.00;100553.50;5069658;28;20106;-50
2022/09/14 06:39:30;;;;;;;9.23;2.92;;;;;;;15.14;100.00;100548.44;5069415;28;20053;-48
2022/09/14 06:41:58;;;;;;;8.23;3.40;;;;;;;15.17;100.00;100547.34;5070236;28;20123;-48
2022/09/14 06:44:26;;;;;;;10.00;3.03;;;;;;;15.27;100.00;100552.66;5069575;28;20059;-49
2022/09/14 06:46:54;;;;;;;8.18;2.90;;;;;;;15.32;100.00;100550.44;5068471;28;20109;-46
2022/09/14 06:49:22;;;;;;;9.75;2.60;;;;;;;15.32;100.00;100551.25;5069917;28;20078;-47
2022/09/14 06:51:53;;;;;;;7.03;2.50;;;;;;;15.21;100.00;100543.44;5068655;28;20075;-47
2022/09/14 06:54:23;;;;;;;7.97;2.45;;;;;;;15.17;100.00;100537.59;5069701;28;20105;-48
2022/09/14 06:56:51;;;;;;;9.57;2.20;;;;;;;15.20;100.00;100549.72;5069929;28;20037;-48
2022/09/14 06:59:20;;;;;;;7.47;2.58;;;;;;;15.25;100.00;100552.78;5069638;28;20048;-47
2022/09/14 07:01:48;;;;;;;7.00;2.20;;;;;;;15.18;100.00;100554.31;5069679;28;20422;-49
2022/09/14 07:04:17;;;;;;;8.63;2.40;;;;;;;15.20;100.00;100560.31;5069279;28;20128;-49
2022/09/14 07:06:49;;;;;;;8.43;2.90;;;;;;;15.25;100.00;100555.44;5071216;28;20053;-49
2022/09/14 07:09:19;;;;;;;9.20;2.40;;;;;;;15.24;100.00;100552.94;5072899;28;20106;-52
2022/09/14 07:11:49;;;;;;;8.85;2.30;;;;;;;15.29;100.00;100548.91;5073442;28;20045;-51
2022/09/14 07:14:18;;;;;;;9.73;2.60;;;;;;;15.26;100.00;100551.81;5073098;28;20119;-49
2022/09/14 07:16:46;;;;;;;11.45;2.80;;;;;;;15.24;100.00;100543.16;5071842;28;20052;-47
2022/09/14 07:19:15;;;;;;;11.23;2.47;;;;;;;15.32;100.00;100555.72;5073489;28;20044;-51
2022/09/14 07:21:43;;;;;;;7.68;2.95;;;;;;;15.27;100.00;100548.22;5072509;28;20479;-52
2022/09/14 07:24:13;;;;;;;8.93;2.45;;;;;;;15.30;100.00;100550.56;5072722;28;20044;-51
2022/09/14 07:26:42;;;;;;;7.72;2.80;;;;;;;15.45;100.00;100552.84;5073590;28;20048;-52
2022/09/14 07:29:16;;;;;;;7.35;2.85;;;;;;;15.40;100.00;100555.06;5072950;28;20533;-50
2022/09/14 07:31:46;;;;;;;10.43;2.90;;;;;;;15.43;100.00;100560.88;5072421;28;20079;-51
2022/09/14 07:34:15;;;;;;;7.88;2.55;;;;;;;15.44;100.00;100559.09;5072659;28;20052;-50
2022/09/14 07:36:43;;;;;;;8.82;2.70;;;;;;;15.41;100.00;100554.09;5071702;28;20076;-51
2022/09/14 07:39:14;;;;;;;9.73;2.80;;;;;;;15.49;100.00;100551.56;5072865;28;20076;-49
2022/09/14 07:41:43;;;;;;;5.57;2.38;;;;;;;15.50;100.00;100546.13;5073301;28;20111;-51
2022/09/14 07:44:16;;;;;;;7.25;2.30;;;;;;;15.43;100.00;100547.66;5072942;28;20495;-53
2022/09/14 07:46:45;;;;;;;6.65;2.60;;;;;;;15.43;100.00;100541.53;5072521;28;20040;-51
2022/09/14 07:49:15;;;;;;;7.80;2.50;;;;;;;15.46;100.00;100536.78;5073009;28;20395;-52
2022/09/14 07:51:43;;;;;;;6.90;2.28;;;;;;;15.43;100.00;100542.34;5071811;28;20056;-47
2022/09/14 07:54:12;;;;;;;8.02;2.40;;;;;;;15.42;100.00;100532.75;5072571;28;20032;-50
2022/09/14 07:56:42;;;;;;;9.90;2.47;;;;;;;15.41;100.00;100538.19;5073061;28;20052;-51
2022/09/14 07:59:11;;;;;;;8.18;2.35;;;;;;;15.48;100.00;100534.00;5072630;28;20102;-50
2022/09/14 08:02:01;;;;;;;10.27;3.55;;;;;;;15.43;100.00;100529.09;5072521;28;20136;-50
2022/09/14 08:04:29;;;;;;;9.88;3.83;;;;;;;15.44;100.00;100516.69;5071119;28;20048;-49
2022/09/14 08:06:57;;;;;;;10.38;3.28;;;;;;;15.38;100.00;100524.22;5070146;28;20040;-51
2022/09/14 08:09:25;;;;;;;9.10;2.53;;;;;;;15.40;100.00;100525.91;5072093;28;20072;-50
2022/09/14 08:11:53;;;;;;;7.13;3.08;;;;;;;15.44;100.00;100530.78;5072789;28;20102;-52
2022/09/14 08:14:21;;;;;;;10.38;3.13;;;;;;;15.50;100.00;100530.22;5070811;28;20066;-52
2022/09/14 08:16:49;;;;;;;12.43;3.95;;;;;;;15.46;100.00;100531.50;5071116;28;20102;-48
2022/09/14 08:19:19;;;;;;;11.95;3.60;;;;;;;15.45;100.00;100528.97;5071979;28;20048;-50
2022/09/14 08:21:48;;;;;;;10.02;3.30;;;;;;;15.44;100.00;100535.25;5070871;28;20398;-51
2022/09/14 08:24:17;;;;;;;9.57;3.30;;;;;;;15.57;100.00;100525.22;5071853;28;20159;-51
2022/09/14 08:26:46;;;;;;;8.70;3.67;;;;;;;15.61;100.00;100529.25;5071709;28;20566;-51
2022/09/14 08:29:15;;;;;;;11.02;4.57;;;;;;;15.56;100.00;100526.19;5071895;28;20478;-50
2022/09/14 08:31:44;;;;;;;7.85;3.90;;;;;;;15.61;100.00;100525.75;5070215;28;20056;-49
2022/09/14 08:34:14;;;;;;;12.38;5.03;;;;;;;15.53;100.00;100526.47;5072019;28;20471;-47
2022/09/14 08:36:44;;;;;;;10.57;4.10;;;;;;;15.49;100.00;100519.78;5070623;28;20131;-51
2022/09/14 08:39:14;;;;;;;10.18;4.38;;;;;;;15.54;100.00;100517.53;5071357;28;20068;-48
2022/09/14 08:41:50;;;;;;;11.15;4.00;;;;;;;15.62;100.00;100519.47;5072272;28;20116;-52
2022/09/14 08:44:22;;;;;;;9.93;4.07;;;;;;;15.65;100.00;100512.09;5071865;28;20053;-49
2022/09/14 08:46:54;;;;;;;9.82;4.10;;;;;;;15.64;100.00;100517.53;5071386;28;20041;-51
2022/09/14 08:49:30;;;;;;;9.37;3.60;;;;;;;15.55;100.00;100519.19;5071669;28;20103;-49
2022/09/14 08:52:04;;;;;;;9.98;4.45;;;;;;;15.58;100.00;100512.78;5070908;28;20052;-53
2022/09/14 08:54:36;;;;;;;10.10;3.83;;;;;;;15.54;100.00;100512.22;5071009;28;20049;-50
2022/09/14 08:57:12;;;;;;;8.77;3.20;;;;;;;15.58;100.00;100523.38;5071618;28;20044;-50
2022/09/14 08:59:48;;;;;;;14.82;3.38;;;;;;;15.57;100.00;100519.06;5071055;28;20441;-51
2022/09/14 09:02:36;;;;;;;8.80;3.78;;;;;;;15.59;100.00;100517.94;5071403;28;20123;-49
2022/09/14 09:05:23;;;;;;;8.60;3.30;;;;;;;15.57;100.00;100517.25;5068990;28;20056;-48
2022/09/14 09:08:00;;;;;;;13.00;5.68;;;;;;;15.57;100.00;100517.25;5071046;28;20604;-51
2022/09/14 09:10:29;;;;;;;12.32;5.07;;;;;;;15.61;100.00;100520.44;5071444;28;20449;-48
2022/09/14 09:13:00;;;;;;;13.38;4.55;;;;;;;15.65;100.00;100524.50;5071093;28;20124;-49
2022/09/14 09:15:35;;;;;;;9.93;3.50;;;;;;;15.69;100.00;100515.28;5070506;28;20048;-50
2022/09/14 09:18:07;;;;;;;7.45;3.28;;;;;;;15.64;100.00;100528.97;5070797;28;20052;-51
2022/09/14 09:20:40;;;;;;;9.70;3.80;;;;;;;15.63;100.00;100524.63;5069547;28;20087;-49
2022/09/14 09:23:11;;;;;;;;;;;;;;;15.76;100.00;100516.41;5071159;28;20548;-50
2022/09/14 09:25:56;;;;;;;7.47;2.70;;;;;;;15.71;100.00;100506.22;5071059;28;19924;-51
2022/09/14 09:28:26;;;;;;;9.90;3.00;;;;;;;15.80;100.00;100503.72;5086201;28;20048;-48
2022/09/14 09:30:56;;;;;;;9.48;3.58;;;;;;;15.71;100.00;100503.56;5070297;28;20041;-50
2022/09/14 09:33:26;;;;;;;8.15;3.15;;;;;;;15.83;100.00;100508.75;5070727;28;20045;-48
2022/09/14 09:35:55;;;;;;;10.95;3.30;;;;;;;15.90;100.00;100504.53;5068124;28;20044;-46
2022/09/14 09:38:28;;;;;;;10.48;3.60;;;;;;;15.80;100.00;100506.38;5070404;28;20499;-52
2022/09/14 09:41:00;;;;;;;10.23;3.53;;;;;;;15.79;100.00;100509.97;5070646;28;20056;-51
2022/09/14 09:43:28;;;;;;;11.85;3.97;;;;;;;15.83;100.00;100517.53;5070405;28;20044;-52
2022/09/14 09:46:17;;;;;;;11.85;4.05;;;;;;;15.80;100.00;100516.97;5069681;28;20062;-51
2022/09/14 09:48:47;;;;;;;10.13;3.70;;;;;;;15.82;100.00;100520.34;5070211;28;20087;-49
2022/09/14 09:51:17;;;;;;;10.77;3.90;;;;;;;15.88;100.00;100514.44;5068963;28;20048;-48
2022/09/14 09:53:55;;;;;;;12.82;3.38;;;;;;;15.94;100.00;100505.94;5069104;28;20056;-50
2022/09/14 09:56:25;;;;;;;8.75;3.95;;;;;;;15.94;100.00;100505.06;5069877;28;20476;-49
2022/09/14 09:58:53;;;;;;;9.45;3.85;;;;;;;15.94;100.00;100513.88;5070078;28;20090;-51
2022/09/14 10:01:26;;;;;;;14.07;4.53;;;;;;;15.95;100.00;100509.41;5069447;28;20152;-48
2022/09/14 10:04:05;;;;;;;11.43;3.85;;;;;;;15.88;100.00;100510.00;5069979;28;20515;-52
2022/09/14 10:06:42;;;;;;;10.55;3.83;;;;;;;15.82;100.00;100507.06;5068728;28;20102;-49
2022/09/14 10:09:17;;;;;;;8.82;3.20;;;;;;;15.84;100.00;100508.59;5069810;28;20548;-50
2022/09/14 10:11:46;;;;;;;7.72;3.65;;;;;;;15.86;100.00;100505.81;5070119;28;20553;-50
2022/09/14 10:14:24;;;;;;;8.95;3.22;;;;;;;15.89;100.00;100502.88;5070139;28;20160;-49
2022/09/14 10:16:52;;;;;;;8.82;3.90;;;;;;;15.92;100.00;100507.88;5068636;28;20056;-51
2022/09/14 10:19:23;;;;;;;8.32;3.70;;;;;;;15.95;100.00;100499.66;5069448;28;20048;-48
2022/09/14 10:22:17;;;;;;;7.95;3.72;;;;;;;15.98;100.00;100494.06;5068910;28;20127;-51
2022/09/14 10:24:58;;;;;;;7.82;4.22;;;;;;;15.91;100.00;100492.97;5069984;28;20487;-51
2022/09/14 10:27:40;;;;;;;10.23;4.72;;;;;;;15.85;100.00;100499.66;5069562;28;20503;-48
2022/09/14 10:30:14;;;;;;;7.57;3.78;;;;;;;15.95;100.00;100499.66;5068960;28;20064;-51
2022/09/14 10:32:46;;;;;;;9.50;4.05;;;;;;;15.90;100.00;100499.25;5068550;28;20060;-52
2022/09/14 10:35:16;;;;;;;8.25;3.83;;;;;;;15.90;100.00;100496.59;5068553;28;20040;-50
2022/09/14 10:38:00;;;;;;;6.53;3.30;;;;;;;15.82;100.00;100497.28;5069546;28;20048;-50
2022/09/14 10:40:36;;;;;;;8.07;3.65;;;;;;;15.89;100.00;100498.38;5070233;28;20048;-49
2022/09/14 10:43:14;;;;;;;11.30;4.15;;;;;;;15.96;100.00;100496.00;5074145;28;20421;-50
2022/09/14 10:45:49;;;;;;;7.03;4.22;;;;;;;16.02;100.00;100499.88;5073255;28;20048;-49
2022/09/14 10:48:46;;;;;;;9.02;4.10;;;;;;;15.99;100.00;100500.19;5073225;28;20586;-51
2022/09/14 10:51:34;;;;;;;9.02;4.70;;;;;;;16.02;100.00;100499.88;5072444;28;20062;-50
2022/09/14 10:54:14;;;;;;;12.05;4.93;;;;;;;16.00;100.00;100501.88;5073168;28;20045;-52
2022/09/14 10:57:01;;;;;;;9.77;4.60;;;;;;;16.02;100.00;100499.88;5073430;28;20138;-48
2022/09/14 10:59:37;;;;;;;9.30;4.38;;;;;;;16.12;100.00;100499.88;5073426;28;20499;-47
2022/09/14 11:02:25;;;;;;;8.90;4.15;;;;;;;16.17;100.00;100500.25;5073468;28;20384;-50
2022/09/14 11:05:11;;;;;;;8.55;4.55;;;;;;;16.15;100.00;100496.94;5072648;28;20041;-49
2022/09/14 11:07:51;;;;;;;9.90;4.22;;;;;;;16.21;100.00;100489.25;5073804;28;20052;-51
2022/09/14 11:10:27;;;;;;;10.23;4.45;;;;;;;16.20;100.00;100494.69;5073028;28;20068;-50
2022/09/14 11:13:26;;;;;;;9.75;4.50;;;;;;;16.25;100.00;100491.59;5073218;28;20528;-53
2022/09/14 11:16:05;;;;;;;11.32;4.28;;;;;;;16.25;100.00;100488.94;5072393;28;20106;-52
2022/09/14 11:18:46;;;;;;;8.88;4.28;;;;;;;16.21;100.00;100488.38;5073216;28;20058;-49
2022/09/14 11:21:25;;;;;;;11.80;4.35;;;;;;;16.22;100.00;100485.63;5071665;28;20040;-53
2022/09/14 11:23:56;;;;;;;10.77;4.63;;;;;;;16.32;100.00;100484.72;5072779;28;20056;-53
2022/09/14 11:26:30;;;;;;;8.10;4.50;;;;;;;16.34;100.00;100488.91;5072928;28;20052;-52
2022/09/14 11:29:09;;;;;;;9.13;4.53;;;;;;;16.34;100.00;100488.06;5072711;28;20048;-53
2022/09/14 11:31:51;;;;;;;12.02;4.93;;;;;;;16.45;100.00;100479.09;5070980;28;20049;-51
2022/09/14 11:34:43;;;;;;;7.30;4.03;;;;;;;16.48;100.00;100489.41;5072292;28;20135;-54
2022/09/14 11:37:14;;;;;;;10.40;4.65;;;;;;;16.54;100.00;100487.00;5072839;28;20057;-49
2022/09/14 11:39:47;;;;;;;10.25;4.85;;;;;;;16.59;100.00;100486.53;5072165;28;20056;-54